Time;durP1;ratioP1;P1;durP2;ratioP2;P2;SDS_P1;SDS_P2;PMS_P1;PMS_P2;Temp;Humidity;BMP_temperature;BMP_pressure;BME280_temperature;BME280_humidity;BME280_pressure;Samples;Min_cycle;Max_cycle;Signal;HPM_P1;HPM_P2
2024/04/20 00:01:01;;;;;;;;;;;;;;;10.44;100.00;99299.75;5488296;26;19923;-79
2024/04/20 00:03:26;;;;;;;;;;;;;;;10.23;100.00;99292.34;5488489;26;19924;-79
2024/04/20 00:05:51;;;;;;;;;;;;;;;10.29;100.00;99283.41;5487281;26;19931;-78
2024/04/20 00:08:17;;;;;;;;;;;;;;;10.56;100.00;99281.03;5488217;26;19924;-78
2024/04/20 00:10:42;;;;;;;;;;;;;;;10.67;100.00;99262.56;5488144;26;19931;-78
2024/04/20 00:13:07;;;;;;;;;;;;;;;10.70;100.00;99270.88;5487830;26;19938;-78
2024/04/20 00:15:32;;;;;;;;;;;;;;;10.68;100.00;99250.84;5488653;26;19924;-79
2024/04/20 00:17:58;;;;;;;;;;;;;;;10.62;100.00;99257.94;5487345;26;19923;-78
2024/04/20 00:20:23;;;;;;;;;;;;;;;10.44;100.00;99234.94;5488109;26;19924;-78
2024/04/20 00:22:48;;;;;;;;;;;;;;;10.51;100.00;99218.81;5488230;26;19924;-78
2024/04/20 00:25:14;;;;;;;;;;;;;;;10.41;100.00;99217.56;5486355;26;19923;-78
2024/04/20 00:27:39;;;;;;;;;;;;;;;10.53;100.00;99200.72;5487096;26;19969;-80
2024/04/20 00:30:04;;;;;;;;;;;;;;;10.77;100.00;99196.88;5488191;26;19995;-77
2024/04/20 00:32:30;;;;;;;;;;;;;;;10.88;100.00;99194.38;5488320;26;19952;-79
2024/04/20 00:34:55;;;;;;;;;;;;;;;10.75;100.00;99198.97;5486076;26;20052;-79
2024/04/20 00:37:21;;;;;;;;;;;;;;;10.74;100.00;99212.56;5463874;26;19935;-79
2024/04/20 00:39:46;;;;;;;;;;;;;;;10.62;100.00;99231.28;5451343;26;19924;-79
2024/04/20 00:42:11;;;;;;;;;;;;;;;10.56;100.00;99253.56;5451395;26;20270;-79
2024/04/20 00:44:36;;;;;;;;;;;;;;;10.58;100.00;99256.78;5451494;26;19992;-79
2024/04/20 00:47:03;;;;;;;;;;;;;;;10.30;100.00;99255.75;5469450;26;19988;-80
2024/04/20 00:49:29;;;;;;;;;;;;;;;10.44;100.00;99249.09;5486039;26;19924;-80
2024/04/20 00:51:55;;;;;;;;;;;;;;;10.59;100.00;99253.91;5487654;26;19931;-80
2024/04/20 00:54:20;;;;;;;;;;;;;;;10.51;100.00;99256.94;5487743;26;19926;-80
2024/04/20 00:56:45;;;;;;;;;;;;;;;10.51;100.00;99251.63;5473624;26;19924;-80
2024/04/20 00:59:11;;;;;;;;;;;;;;;10.52;100.00;99258.56;5451208;26;19996;-79
2024/04/20 01:01:37;;;;;;;;;;;;;;;10.42;100.00;99253.84;5450617;26;20773;-80
2024/04/20 01:04:03;;;;;;;;;;;;;;;10.41;100.00;99240.75;5451004;26;20352;-80
2024/04/20 01:06:28;;;;;;;;;;;;;;;10.50;100.00;99239.34;5450929;26;20418;-79
2024/04/20 01:08:55;;;;;;;;;;;;;;;10.53;100.00;99227.38;5451096;26;19924;-79
2024/04/20 01:11:21;;;;;;;;;;;;;;;11.07;100.00;99203.75;5449133;26;20338;-80
2024/04/20 01:13:52;;;;;;;;;;;;;;;11.16;100.00;99191.63;5448766;26;19925;-81
2024/04/20 01:16:18;;;;;;;;;;;;;;;11.06;100.00;99199.47;5455135;26;19925;-80
2024/04/20 01:18:43;;;;;;;;;;;;;;;10.95;100.00;99219.84;5487228;26;19931;-83
2024/04/20 01:21:09;;;;;;;;;;;;;;;10.88;100.00;99229.06;5485558;26;19924;-80
2024/04/20 01:23:34;;;;;;;;;;;;;;;10.71;100.00;99240.50;5486496;26;20334;-80
2024/04/20 01:26:00;;;;;;;;;;;;;;;10.56;100.00;99245.56;5486413;26;20362;-80
2024/04/20 01:28:25;;;;;;;;;;;;;;;10.51;100.00;99243.63;5486131;26;19993;-80
2024/04/20 01:30:50;;;;;;;;;;;;;;;10.55;100.00;99235.94;5485345;26;19992;-80
2024/04/20 01:33:17;;;;;;;;;;;;;;;10.58;100.00;99244.28;5486938;26;19924;-81
2024/04/20 01:35:43;;;;;;;;;;;;;;;10.43;100.00;99247.47;5486727;26;20017;-80
2024/04/20 01:38:09;;;;;;;;;;;;;;;10.47;100.00;99239.81;5453372;26;19952;-80
2024/04/20 01:40:34;;;;;;;;;;;;;;;10.47;100.00;99255.81;5448965;26;19925;-80
2024/04/20 01:42:59;;;;;;;;;;;;;;;10.46;100.00;99275.50;5450416;26;19931;-79
2024/04/20 01:45:25;;;;;;;;;;;;;;;10.56;100.00;99269.53;5450321;26;20274;-80
2024/04/20 01:47:50;;;;;;;;;;;;;;;10.57;100.00;99276.50;5475777;26;19931;-80
2024/04/20 01:50:16;;;;;;;;;;;;;;;10.61;100.00;99277.66;5486677;26;19931;-81
2024/04/20 01:52:42;;;;;;;;;;;;;;;10.50;100.00;99281.16;5484630;26;19924;-80
2024/04/20 01:55:07;;;;;;;;;;;;;;;10.63;100.00;99280.91;5486539;26;19924;-80
2024/04/20 01:57:33;;;;;;;;;;;;;;;10.67;100.00;99282.03;5465655;26;19942;-80
2024/04/20 01:59:58;;;;;;;;;;;;;;;11.08;100.00;99282.75;5450151;26;19931;-80
2024/04/20 02:02:24;;;;;;;;;;;;;;;10.92;100.00;99278.22;5449864;26;19948;-81
2024/04/20 02:04:49;;;;;;;;;;;;;;;10.76;100.00;99288.59;5449955;26;20372;-80
2024/04/20 02:07:14;;;;;;;;;;;;;;;10.76;100.00;99293.91;5465322;26;19935;-80
2024/04/20 02:09:40;;;;;;;;;;;;;;;11.27;100.00;99286.78;5486065;26;19935;-80
2024/04/20 02:12:06;;;;;;;;;;;;;;;11.21;100.00;99294.97;5486794;26;20260;-81
2024/04/20 02:14:31;;;;;;;;;;;;;;;11.24;100.00;99289.16;5484786;26;20018;-81
2024/04/20 02:16:57;;;;;;;;;;;;;;;11.48;100.00;99303.13;5485841;26;20256;-81
2024/04/20 02:19:22;;;;;;;;;;;;;;;11.46;100.00;99299.91;5484205;26;20470;-81
2024/04/20 02:21:47;;;;;;;;;;;;;;;11.21;100.00;99305.66;5484366;26;19924;-81
2024/04/20 02:24:13;;;;;;;;;;;;;;;11.12;100.00;99302.56;5484208;26;19992;-80
2024/04/20 02:26:38;;;;;;;;;;;;;;;11.32;100.00;99304.78;5483038;26;19932;-81
2024/04/20 02:29:03;;;;;;;;;;;;;;;11.53;100.00;99305.09;5484264;26;20249;-81
2024/04/20 02:31:29;;;;;;;;;;;;;;;11.41;100.00;99286.47;5484391;26;19924;-80
2024/04/20 02:33:54;;;;;;;;;;;;;;;11.22;100.00;99294.72;5486244;26;19930;-81
2024/04/20 02:36:23;;;;;;;;;;;;;;;10.92;100.00;99288.88;5483995;26;19924;-81
2024/04/20 02:38:49;;;;;;;;;;;;;;;11.15;100.00;99306.59;5483285;26;19923;-80
2024/04/20 02:41:14;;;;;;;;;;;;;;;11.06;100.00;99295.53;5485958;26;20248;-80
2024/04/20 02:43:39;;;;;;;;;;;;;;;10.71;100.00;99304.50;5485939;26;19930;-81
2024/04/20 02:46:04;;;;;;;;;;;;;;;10.90;100.00;99298.97;5483927;26;19923;-80
2024/04/20 02:48:30;;;;;;;;;;;;;;;11.04;100.00;99297.63;5484917;26;19924;-81
2024/04/20 02:50:55;;;;;;;;;;;;;;;11.44;100.00;99294.00;5483895;26;19924;-81
2024/04/20 02:53:20;;;;;;;;;;;;;;;11.43;100.00;99287.06;5484108;26;20349;-80
2024/04/20 02:55:45;;;;;;;;;;;;;;;11.57;100.00;99288.34;5483636;26;19924;-80
2024/04/20 02:58:11;;;;;;;;;;;;;;;11.61;100.00;99289.47;5458131;26;19932;-81
2024/04/20 03:00:36;;;;;;;;;;;;;;;11.76;100.00;99293.41;5447440;26;19924;-81
2024/04/20 03:03:01;;;;;;;;;;;;;;;11.31;100.00;99283.66;5448994;26;19924;-81
2024/04/20 03:05:27;;;;;;;;;;;;;;;10.89;100.00;99289.34;5449264;26;19952;-80
2024/04/20 03:07:52;;;;;;;;;;;;;;;10.72;100.00;99290.13;5448287;26;19932;-81
2024/04/20 03:10:17;;;;;;;;;;;;;;;10.51;100.00;99286.25;5447381;26;20364;-80
2024/04/20 03:12:43;;;;;;;;;;;;;;;10.59;100.00;99287.75;5449115;26;19925;-80
2024/04/20 03:15:08;;;;;;;;;;;;;;;11.02;100.00;99294.38;5449111;26;19924;-80
2024/04/20 03:17:33;;;;;;;;;;;;;;;11.36;100.00;99286.38;5460266;26;20386;-79
2024/04/20 03:19:58;;;;;;;;;;;;;;;11.40;100.00;99290.19;5471033;26;19936;-81
2024/04/20 03:22:24;;;;;;;;;;;;;;;11.22;100.00;99280.59;5448927;26;19931;-81
2024/04/20 03:24:49;;;;;;;;;;;;;;;10.81;100.00;99287.91;5448112;26;20279;-81
2024/04/20 03:27:14;;;;;;;;;;;;;;;10.88;100.00;99285.06;5463244;26;19967;-80
2024/04/20 03:29:39;;;;;;;;;;;;;;;11.11;100.00;99276.13;5486918;26;20248;-81
2024/04/20 03:32:05;;;;;;;;;;;;;;;11.32;100.00;99261.22;5488912;26;19936;-80
2024/04/20 03:34:30;;;;;;;;;;;;;;;11.41;100.00;99257.13;5488662;26;19931;-81
2024/04/20 03:36:56;;;;;;;;;;;;;;;11.47;100.00;99261.47;5483965;26;19932;-80
2024/04/20 03:39:22;;;;;;;;;;;;;;;11.52;100.00;99266.88;5452400;26;19993;-80
2024/04/20 03:41:47;;;;;;;;;;;;;;;11.55;100.00;99260.28;5452002;26;19924;-80
2024/04/20 03:44:16;;;;;;;;;;;;;;;11.09;100.00;99257.69;5452217;26;20338;-80
2024/04/20 03:46:42;;;;;;;;;;;;;;;10.78;100.00;99251.03;5452815;26;19924;-81
2024/04/20 03:49:07;;;;;;;;;;;;;;;10.81;100.00;99255.88;5451993;26;19932;-80
2024/04/20 03:51:33;;;;;;;;;;;;;;;11.09;100.00;99247.00;5452209;26;20350;-82
2024/04/20 03:54:01;;;;;;;;;;;;;;;10.77;100.00;99255.56;5450397;26;19993;-80
2024/04/20 03:56:27;;;;;;;;;;;;;;;10.96;100.00;99258.00;5450389;26;19924;-81
2024/04/20 03:58:52;;;;;;;;;;;;;;;10.76;100.00;99258.44;5454694;26;19928;-79
2024/04/20 04:01:17;;;;;;;;;;;;;;;10.93;100.00;99261.13;5452178;26;20435;-80
2024/04/20 04:03:43;;;;;;;;;;;;;;;11.21;100.00;99261.06;5450107;26;20265;-81
2024/04/20 04:06:08;;;;;;;;;;;;;;;11.18;100.00;99255.44;5451916;26;19993;-81
2024/04/20 04:08:33;;;;;;;;;;;;;;;11.30;100.00;99252.66;5454101;26;19993;-81
2024/04/20 04:10:58;;;;;;;;;;;;;;;11.24;100.00;99260.59;5450237;26;19933;-80
2024/04/20 04:13:24;;;;;;;;;;;;;;;11.24;100.00;99260.59;5451326;26;19936;-81
2024/04/20 04:15:49;;;;;;;;;;;;;;;11.46;100.00;99266.03;5450085;26;19924;-80
2024/04/20 04:18:15;;;;;;;;;;;;;;;11.15;100.00;99267.38;5451952;26;20483;-79
2024/04/20 04:20:40;;;;;;;;;;;;;;;10.90;100.00;99274.97;5451547;26;19985;-78
2024/04/20 04:23:06;;;;;;;;;;;;;;;10.85;100.00;99273.84;5449661;26;20118;-80
2024/04/20 04:25:31;;;;;;;;;;;;;;;11.06;100.00;99274.97;5451619;26;19993;-80
2024/04/20 04:27:57;;;;;;;;;;;;;;;10.88;100.00;99266.41;5449191;26;20367;-80
2024/04/20 04:30:22;;;;;;;;;;;;;;;10.91;100.00;99272.06;5451595;26;20374;-80
2024/04/20 04:32:48;;;;;;;;;;;;;;;10.89;100.00;99258.16;5449996;26;19925;-81
2024/04/20 04:35:13;;;;;;;;;;;;;;;11.16;100.00;99258.34;5451648;26;20093;-80
2024/04/20 04:37:39;;;;;;;;;;;;;;;11.18;100.00;99271.44;5457779;26;20325;-80
2024/04/20 04:40:05;;;;;;;;;;;;;;;11.10;100.00;99264.66;5487614;26;19963;-80
2024/04/20 04:42:30;;;;;;;;;;;;;;;11.31;100.00;99248.97;5487776;26;19931;-79
2024/04/20 04:44:56;;;;;;;;;;;;;;;11.23;100.00;99247.50;5486061;26;19931;-81
2024/04/20 04:47:22;;;;;;;;;;;;;;;11.15;100.00;99240.69;5484957;26;19930;-80
2024/04/20 04:49:47;;;;;;;;;;;;;;;11.20;100.00;99240.78;5487561;26;19924;-79
2024/04/20 04:52:12;;;;;;;;;;;;;;;11.19;100.00;99236.50;5485866;26;19931;-80
2024/04/20 04:54:38;;;;;;;;;;;;;;;11.18;100.00;99231.41;5487652;26;19950;-80
2024/04/20 04:57:03;;;;;;;;;;;;;;;11.20;100.00;99238.13;5485667;26;19924;-81
2024/04/20 04:59:28;;;;;;;;;;;;;;;11.25;100.00;99256.88;5482771;26;19935;-79
2024/04/20 05:01:54;;;;;;;;;;;;;;;11.23;100.00;99248.28;5487456;26;19984;-81
2024/04/20 05:04:20;;;;;;;;;;;;;;;11.18;100.00;99245.56;5487422;26;20261;-80
2024/04/20 05:06:46;;;;;;;;;;;;;;;11.34;100.00;99240.44;5487101;26;19952;-81
2024/04/20 05:09:12;;;;;;;;;;;;;;;11.41;100.00;99249.13;5484058;26;19952;-80
2024/04/20 05:11:37;;;;;;;;;;;;;;;11.56;100.00;99241.31;5487353;26;19935;-80
2024/04/20 05:14:03;;;;;;;;;;;;;;;11.54;100.00;99254.09;5484786;26;19933;-80
2024/04/20 05:16:28;;;;;;;;;;;;;;;11.76;100.00;99261.34;5487716;26;19930;-79
2024/04/20 05:18:53;;;;;;;;;;;;;;;11.74;100.00;99260.78;5484622;26;19931;-79
2024/04/20 05:21:18;;;;;;;;;;;;;;;11.70;100.00;99273.03;5487167;26;19996;-80
2024/04/20 05:23:44;;;;;;;;;;;;;;;11.75;100.00;99265.91;5487201;26;19924;-80
2024/04/20 05:26:09;;;;;;;;;;;;;;;11.96;100.00;99272.34;5486833;26;19923;-79
2024/04/20 05:28:35;;;;;;;;;;;;;;;11.85;100.00;99273.25;5484035;26;19923;-80
2024/04/20 05:31:00;;;;;;;;;;;;;;;11.90;100.00;99284.03;5487293;26;19931;-79
2024/04/20 05:33:25;;;;;;;;;;;;;;;11.92;100.00;99284.59;5487707;26;19924;-79
2024/04/20 05:35:51;;;;;;;;;;;;;;;11.78;100.00;99292.09;5487825;26;19924;-79
2024/04/20 05:38:16;;;;;;;;;;;;;;;11.85;100.00;99286.59;5484705;26;19924;-79
2024/04/20 05:40:41;;;;;;;;;;;;;;;11.98;100.00;99293.47;5488710;26;20330;-79
2024/04/20 05:43:06;;;;;;;;;;;;;;;12.06;100.00;99301.06;5487334;26;19924;-80
2024/04/20 05:45:33;;;;;;;;;;;;;;;11.85;100.00;99307.97;5491846;26;19924;-80
2024/04/20 05:47:59;;;;;;;;;;;;;;;12.20;100.00;99309.53;5481462;26;19925;-79
2024/04/20 05:50:24;;;;;;;;;;;;;;;12.25;100.00;99302.38;5454397;26;20290;-79
2024/04/20 05:52:49;;;;;;;;;;;;;;;12.34;100.00;99300.09;5454957;26;19972;-79
2024/04/20 05:55:15;;;;;;;;;;;;;;;12.57;100.00;99306.25;5455654;26;20254;-79
2024/04/20 05:57:40;;;;;;;;;;;;;;;12.53;100.00;99308.59;5457208;26;19931;-82
2024/04/20 06:00:06;;;;;;;;;;;;;;;12.48;100.00;99305.84;5495109;26;19923;-85
2024/04/20 06:02:34;;;;;;;;;;;;;;;12.42;100.00;99305.00;5493793;26;19923;-79
2024/04/20 06:05:02;;;;;;;;;;;;;;;12.64;100.00;99309.50;5492523;26;19930;-79
2024/04/20 06:07:28;;;;;;;;;;;;;;;12.55;100.00;99313.72;5481555;26;19941;-79
2024/04/20 06:09:53;;;;;;;;;;;;;;;12.43;100.00;99313.84;5473970;26;19992;-78
2024/04/20 06:12:18;;;;;;;;;;;;;;;12.46;100.00;99306.13;5471509;26;19997;-79
2024/04/20 06:14:46;;;;;;;;;;;;;;;12.42;100.00;99307.69;5472649;26;19924;-78
2024/04/20 06:17:11;;;;;;;;;;;;;;;12.66;100.00;99302.84;5474149;26;19935;-78
2024/04/20 06:19:37;;;;;;;;;;;;;;;12.58;100.00;99305.16;5476190;26;19924;-78
2024/04/20 06:22:02;;;;;;;;;;;;;;;12.91;99.31;99311.41;5458083;26;19931;-78
2024/04/20 06:24:27;;;;;;;;;;;;;;;12.96;94.78;99306.09;5451958;26;19924;-78
2024/04/20 06:26:53;;;;;;;;;;;;;;;12.78;99.28;99300.03;5476636;26;19924;-78
2024/04/20 06:29:20;;;;;;;;;;;;;;;13.00;92.03;99296.50;5486204;26;19996;-80
2024/04/20 06:31:46;;;;;;;;;;;;;;;12.83;99.25;99280.53;5486994;26;19923;-78
2024/04/20 06:34:11;;;;;;;;;;;;;;;13.09;90.21;99281.59;5486029;26;19924;-79
2024/04/20 06:36:36;;;;;;;;;;;;;;;12.99;89.92;99274.28;5485615;26;20455;-79
2024/04/20 06:39:01;;;;;;;;;;;;;;;12.93;90.79;99274.50;5484829;26;19924;-81
2024/04/20 06:41:27;;;;;;;;;;;;;;;13.03;89.92;99282.59;5486214;26;19992;-79
2024/04/20 06:43:57;;;;;;;;;;;;;;;13.08;88.85;99285.34;5485678;26;19932;-79
2024/04/20 06:46:22;;;;;;;;;;;;;;;13.37;85.92;99272.47;5486103;26;20365;-80
2024/04/20 06:48:48;;;;;;;;;;;;;;;13.32;87.87;99261.75;5468949;26;19932;-79
2024/04/20 06:51:13;;;;;;;;;;;;;;;13.60;86.33;99263.25;5449473;26;19948;-79
2024/04/20 06:53:38;;;;;;;;;;;;;;;13.86;84.17;99276.81;5449257;26;20373;-79
2024/04/20 06:56:04;;;;;;;;;;;;;;;13.71;80.30;99274.03;5449385;26;19957;-80
2024/04/20 06:58:29;;;;;;;;;;;;;;;13.65;78.70;99282.06;5479147;26;19927;-80
2024/04/20 07:00:54;;;;;;;;;;;;;;;13.46;80.36;99294.22;5488409;26;19931;-80
2024/04/20 07:03:20;;;;;;;;;;;;;;;13.41;80.25;99304.94;5489553;26;19936;-80
2024/04/20 07:05:55;;;;;;;;;;;;;;;13.64;77.31;99296.50;5473077;26;20298;-79
2024/04/20 07:08:21;;;;;;;;;;;;;;;13.44;80.82;99307.06;5470448;26;19924;-79
2024/04/20 07:10:53;;;;;;;;;;;;;;;13.44;79.64;99315.09;5473544;26;19925;-79
2024/04/20 07:13:19;;;;;;;;;;;;;;;13.54;78.24;99307.16;5466856;26;19924;-79
2024/04/20 07:15:50;;;;;;;;;;;;;;;13.65;77.12;99306.19;5471256;26;19931;-80
2024/04/20 07:18:15;;;;;;;;;;;;;;;13.78;78.75;99296.06;5467382;26;20001;-79
2024/04/20 07:20:41;;;;;;;;;;;;;;;14.15;76.98;99290.63;5470210;26;19933;-80
2024/04/20 07:23:06;;;;;;;;;;;;;;;14.25;74.93;99289.88;5468509;26;20265;-79
2024/04/20 07:25:31;;;;;;;;;;;;;;;13.86;75.61;99282.19;5471547;26;19928;-80
2024/04/20 07:27:56;;;;;;;;;;;;;;;13.81;74.56;99285.66;5462131;26;19936;-80
2024/04/20 07:30:22;;;;;;;;;;;;;;;13.87;76.59;99289.13;5485381;26;19924;-80
2024/04/20 07:32:47;;;;;;;;;;;;;;;13.89;77.28;99292.38;5488763;26;20353;-79
2024/04/20 07:35:12;;;;;;;;;;;;;;;13.91;75.19;99290.22;5488842;26;19956;-79
2024/04/20 07:37:38;;;;;;;;;;;;;;;13.78;75.47;99296.06;5488803;26;19924;-80
2024/04/20 07:40:04;;;;;;;;;;;;;;;14.12;76.10;99301.06;5487988;26;19992;-79
2024/04/20 07:42:30;;;;;;;;;;;;;;;14.50;73.98;99299.09;5488435;26;19931;-79
2024/04/20 07:44:55;;;;;;;;;;;;;;;14.29;73.37;99296.34;5488668;26;19947;-79
2024/04/20 07:47:20;;;;;;;;;;;;;;;14.32;68.94;99301.16;5488521;26;19924;-80
2024/04/20 07:49:45;;;;;;;;;;;;;;;14.33;69.62;99297.41;5488278;26;19930;-80
2024/04/20 07:52:11;;;;;;;;;;;;;;;14.52;69.90;99283.53;5488663;26;20319;-79
2024/04/20 07:54:36;;;;;;;;;;;;;;;14.82;69.81;99283.63;5487935;26;19930;-80
2024/04/20 07:57:02;;;;;;;;;;;;;;;14.71;68.86;99298.13;5486657;26;19931;-79
2024/04/20 07:59:27;;;;;;;;;;;;;;;14.56;70.66;99290.00;5470435;26;20669;-81
2024/04/20 08:01:52;;;;;;;;;;;;;;;14.60;69.52;99285.72;5452039;26;19931;-79
2024/04/20 08:04:18;;;;;;;;;;;;;;;14.51;69.98;99282.72;5451612;26;19931;-79
2024/04/20 08:06:43;;;;;;;;;;;;;;;14.65;66.84;99288.44;5452029;26;19925;-79
2024/04/20 08:09:10;;;;;;;;;;;;;;;14.50;65.26;99285.69;5451190;26;19931;-80
2024/04/20 08:11:36;;;;;;;;;;;;;;;14.65;66.05;99277.72;5450671;26;20243;-80
2024/04/20 08:14:01;;;;;;;;;;;;;;;14.46;67.39;99282.69;5451342;26;20368;-80
2024/04/20 08:16:26;;;;;;;;;;;;;;;14.68;68.39;99282.53;5452033;26;19924;-80
2024/04/20 08:18:52;;;;;;;;;;;;;;;14.67;64.66;99280.94;5460341;26;19931;-79
2024/04/20 08:21:17;;;;;;;;;;;;;;;14.57;66.45;99279.03;5488121;26;19992;-79
2024/04/20 08:23:42;;;;;;;;;;;;;;;14.66;65.88;99285.47;5488200;26;20368;-80
2024/04/20 08:26:08;;;;;;;;;;;;;;;14.80;65.92;99288.47;5486062;26;19924;-79
2024/04/20 08:28:33;;;;;;;;;;;;;;;14.55;64.94;99288.38;5487262;26;19930;-79
2024/04/20 08:31:00;;;;;;;;;;;;;;;14.88;66.24;99286.34;5487900;26;19924;-81
2024/04/20 08:33:26;;;;;;;;;;;;;;;15.20;62.87;99288.75;5488228;26;20337;-79
2024/04/20 08:35:51;;;;;;;;;;;;;;;15.36;61.65;99284.19;5488275;26;19930;-79
2024/04/20 08:38:16;;;;;;;;;;;;;;;15.52;61.78;99293.88;5487930;26;19923;-80
2024/04/20 08:40:41;;;;;;;;;;;;;;;15.85;62.00;99297.91;5455111;26;19924;-80
2024/04/20 08:43:07;;;;;;;;;;;;;;;15.94;61.18;99292.75;5451566;26;19924;-80
2024/04/20 08:45:33;;;;;;;;;;;;;;;16.04;56.84;99298.09;5451033;26;20387;-80
2024/04/20 08:47:59;;;;;;;;;;;;;;;15.72;59.06;99284.19;5449566;26;19948;-79
2024/04/20 08:50:26;;;;;;;;;;;;;;;15.71;58.05;99285.25;5478882;26;19924;-79
2024/04/20 08:52:52;;;;;;;;;;;;;;;15.62;60.27;99275.03;5487566;26;19931;-80
2024/04/20 08:55:18;;;;;;;;;;;;;;;15.64;59.81;99269.41;5486131;26;19924;-79
2024/04/20 08:57:45;;;;;;;;;;;;;;;15.77;62.42;99265.38;5487740;26;19935;-80
2024/04/20 09:00:11;;;;;;;;;;;;;;;16.21;57.17;99270.88;5484929;26;19993;-79
2024/04/20 09:02:41;;;;;;;;;;;;;;;16.25;57.28;99276.50;5487175;26;19936;-82
2024/04/20 09:05:07;;;;;;;;;;;;;;;16.02;58.93;99278.75;5487055;26;19943;-79
2024/04/20 09:07:32;;;;;;;;;;;;;;;16.01;55.92;99270.94;5487444;26;19991;-79
2024/04/20 09:09:59;;;;;;;;;;;;;;;15.85;58.07;99267.50;5486369;26;19931;-79
2024/04/20 09:12:24;;;;;;;;;;;;;;;15.24;56.38;99266.50;5485623;26;19930;-80
2024/04/20 09:14:53;;;;;;;;;;;;;;;15.74;58.18;99260.56;5486883;26;19923;-80
2024/04/20 09:17:19;;;;;;;;;;;;;;;16.25;54.84;99257.69;5486201;26;19927;-80
2024/04/20 09:19:48;;;;;;;;;;;;;;;15.91;55.93;99261.03;5470047;26;19924;-79
2024/04/20 09:22:13;;;;;;;;;;;;;;;16.20;54.61;99257.69;5447454;26;19936;-80
2024/04/20 09:24:38;;;;;;;;;;;;;;;16.18;53.69;99265.22;5449931;26;19924;-80
2024/04/20 09:27:05;;;;;;;;;;;;;;;16.38;55.36;99248.19;5450732;26;20251;-80
2024/04/20 09:29:30;;;;;;;;;;;;;;;16.83;56.63;99243.66;5449844;26;19932;-79
2024/04/20 09:31:55;;;;;;;;;;;;;;;16.95;51.08;99251.38;5451058;26;19929;-80
2024/04/20 09:34:22;;;;;;;;;;;;;;;16.85;54.06;99241.47;5448889;26;20229;-80
2024/04/20 09:36:47;;;;;;;;;;;;;;;17.22;52.74;99245.50;5448776;26;19967;-79
2024/04/20 09:39:13;;;;;;;;;;;;;;;17.19;52.04;99243.38;5450425;26;21771;-80
2024/04/20 09:41:38;;;;;;;;;;;;;;;17.36;53.98;99240.25;5450470;26;19993;-82
2024/04/20 09:44:05;;;;;;;;;;;;;;;17.42;49.44;99239.91;5450356;26;20281;-80
2024/04/20 09:46:32;;;;;;;;;;;;;;;17.55;50.77;99238.47;5450753;26;20399;-80
2024/04/20 09:48:59;;;;;;;;;;;;;;;17.79;50.16;99237.66;5450626;26;19924;-81
2024/04/20 09:51:29;;;;;;;;;;;;;;;17.96;48.93;99226.44;5479341;26;20402;-80
2024/04/20 09:53:55;;;;;;;;;;;;;;;18.14;45.52;99232.97;5450367;26;19940;-79
2024/04/20 09:56:21;;;;;;;;;;;;;;;17.82;46.84;99229.81;5450555;26;19931;-80
2024/04/20 09:58:47;;;;;;;;;;;;;;;18.07;44.75;99219.84;5450283;26;19924;-79
2024/04/20 10:01:12;;;;;;;;;;;;;;;18.51;45.31;99215.19;5449777;26;19924;-79
2024/04/20 10:03:38;;;;;;;;;;;;;;;18.64;43.73;99209.88;5450017;26;20683;-81
2024/04/20 10:06:04;;;;;;;;;;;;;;;18.71;43.05;99200.59;5448540;26;19957;-78
2024/04/20 10:08:29;;;;;;;;;;;;;;;19.06;41.97;99205.47;5450163;26;19997;-79
2024/04/20 10:10:55;;;;;;;;;;;;;;;19.44;43.05;99194.50;5452683;26;19956;-80
2024/04/20 10:13:21;;;;;;;;;;;;;;;19.21;40.29;99198.19;5449959;26;19929;-79
2024/04/20 10:15:47;;;;;;;;;;;;;;;19.80;40.16;99198.47;5450501;26;19925;-79
2024/04/20 10:18:13;;;;;;;;;;;;;;;20.06;40.64;99194.16;5450300;26;19984;-80
2024/04/20 10:20:40;;;;;;;;;;;;;;;20.05;39.75;99191.75;5471052;26;19936;-79
2024/04/20 10:23:19;;;;;;;;;;;;;;;19.84;39.79;99181.34;5486551;26;19966;-80
2024/04/20 10:25:48;;;;;;;;;;;;;;;19.37;42.62;99177.06;5486460;26;19924;-81
2024/04/20 10:28:35;;;;;;;;;;;;;;;19.17;37.53;99184.47;5486364;26;20341;-81
2024/04/20 10:31:01;;;;;;;;;;;;;;;18.96;35.32;99185.91;5455542;26;20359;-80
2024/04/20 10:33:27;;;;;;;;;;;;;;;19.53;36.60;99186.50;5448300;26;19935;-81
2024/04/20 10:36:00;;;;;;;;;;;;;;;19.51;37.05;99182.50;5448302;26;19937;-80
2024/04/20 10:38:31;;;;;;;;;;;;;;;19.35;33.92;99179.28;5447862;26;19947;-81
2024/04/20 10:40:56;;;;;;;;;;;;;;;19.65;36.20;99172.47;5452224;26;19931;-80
2024/04/20 10:43:23;;;;;;;;;;;;;;;19.97;33.79;99171.59;5449617;26;19924;-79
2024/04/20 10:46:08;;;;;;;;;;;;;;;19.78;32.07;99170.94;5449452;26;19932;-80
2024/04/20 10:48:34;;;;;;;;;;;;;;;20.33;35.06;99176.25;5447606;26;20051;-79
2024/04/20 10:51:00;;;;;;;;;;;;;;;20.53;32.21;99180.38;5474577;26;20385;-80
2024/04/20 10:53:27;;;;;;;;;;;;;;;20.18;30.97;99171.94;5485930;26;19931;-80
2024/04/20 10:55:56;;;;;;;;;;;;;;;20.25;32.73;99169.63;5485700;26;20335;-80
2024/04/20 10:58:22;;;;;;;;;;;;;;;20.71;33.19;99175.91;5485660;26;19924;-79
2024/04/20 11:00:47;;;;;;;;;;;;;;;20.78;32.98;99175.47;5471498;26;19938;-80
2024/04/20 11:03:13;;;;;;;;;;;;;;;20.45;32.39;99184.63;5468680;26;19932;-77
2024/04/20 11:05:38;;;;;;;;;;;;;;;19.98;33.27;99177.81;5463162;26;19924;-80
2024/04/20 11:08:04;;;;;;;;;;;;;;;19.52;31.02;99182.22;5467629;26;19951;-78
2024/04/20 11:10:29;;;;;;;;;;;;;;;19.35;31.84;99187.38;5474306;26;19932;-79
2024/04/20 11:12:59;;;;;;;;;;;;;;;19.48;31.73;99190.09;5464708;26;20293;-79
2024/04/20 11:15:24;;;;;;;;;;;;;;;18.92;32.73;99188.41;5463190;26;19976;-80
2024/04/20 11:17:50;;;;;;;;;;;;;;;18.75;33.47;99177.31;5482142;26;19928;-80
2024/04/20 11:20:16;;;;;;;;;;;;;;;18.53;34.15;99177.91;5484308;26;19931;-78
2024/04/20 11:22:41;;;;;;;;;;;;;;;18.91;32.92;99186.00;5485106;26;20332;-78
2024/04/20 11:25:07;;;;;;;;;;;;;;;18.62;32.85;99190.47;5485057;26;19924;-78
2024/04/20 11:27:32;;;;;;;;;;;;;;;18.36;33.23;99187.31;5485334;26;19924;-78
2024/04/20 11:29:58;;;;;;;;;;;;;;;18.42;33.38;99196.97;5484235;26;19930;-78
2024/04/20 11:32:23;;;;;;;;;;;;;;;18.23;33.83;99188.06;5484805;26;20012;-79
2024/04/20 11:34:51;;;;;;;;;;;;;;;18.33;33.68;99187.09;5484996;26;19924;-78
2024/04/20 11:37:21;;;;;;;;;;;;;;;18.51;34.84;99185.50;5485108;26;19930;-78
2024/04/20 11:39:46;;;;;;;;;;;;;;;18.53;34.79;99197.63;5483822;26;19940;-79
2024/04/20 11:42:15;;;;;;;;;;;;;;;18.50;33.31;99200.91;5484828;26;19924;-79
2024/04/20 11:44:41;;;;;;;;;;;;;;;18.65;36.82;99194.47;5484772;26;19931;-78
2024/04/20 11:47:16;;;;;;;;;;;;;;;18.57;35.57;99197.81;5487888;26;19924;-78
2024/04/20 11:49:54;;;;;;;;;;;;;;;18.36;33.12;99198.13;5487470;26;19932;-78
2024/04/20 11:55:06;;;;;;;;;;;;;;;18.21;34.10;99198.34;5488907;26;19930;-79
2024/04/20 11:57:32;;;;;;;;;;;;;;;18.11;33.69;99201.97;5488425;26;19924;-79
2024/04/20 11:59:59;;;;;;;;;;;;;;;18.20;34.50;99204.81;5483757;26;19930;-76
2024/04/20 12:02:24;;;;;;;;;;;;;;;17.96;34.57;99200.28;5452140;26;19929;-78
2024/04/20 12:04:50;;;;;;;;;;;;;;;18.15;34.64;99202.22;5451893;26;19931;-78
2024/04/20 12:07:15;;;;;;;;;;;;;;;18.16;34.11;99198.41;5451994;26;19934;-79
2024/04/20 12:09:40;;;;;;;;;;;;;;;18.35;33.10;99207.31;5451806;26;20264;-77
2024/04/20 12:12:06;;;;;;;;;;;;;;;18.51;34.69;99204.41;5486369;26;19960;-78
2024/04/20 12:14:31;;;;;;;;;;;;;;;18.65;34.26;99207.97;5486223;26;19979;-78
2024/04/20 12:16:57;;;;;;;;;;;;;;;18.61;33.67;99209.66;5487431;26;19931;-78
2024/04/20 12:19:22;;;;;;;;;;;;;;;18.42;33.35;99213.16;5485816;26;19924;-78
2024/04/20 12:21:47;;;;;;;;;;;;;;;18.25;35.46;99215.56;5469792;26;19932;-78
2024/04/20 12:24:13;;;;;;;;;;;;;;;18.07;35.09;99214.44;5473463;26;19936;-78
2024/04/20 12:26:39;;;;;;;;;;;;;;;17.92;34.89;99215.44;5487053;26;19952;-78
2024/04/20 12:29:04;;;;;;;;;;;;;;;17.68;36.26;99216.22;5487184;26;19924;-78
2024/04/20 12:31:29;;;;;;;;;;;;;;;17.57;35.12;99208.50;5485175;26;19935;-79
2024/04/20 12:33:57;;;;;;;;;;;;;;;17.57;34.62;99212.03;5476782;26;19924;-78
2024/04/20 12:36:23;;;;;;;;;;;;;;;17.60;36.66;99203.34;5474499;26;19923;-78